Time;durP1;ratioP1;P1;durP2;ratioP2;P2;SDS_P1;SDS_P2;PMS_P1;PMS_P2;Temp;Humidity;BMP_temperature;BMP_pressure;BME280_temperature;BME280_humidity;BME280_pressure;Samples;Min_cycle;Max_cycle;Signal;HPM_P1;HPM_P2
2023/10/30 00:01:16;;;;;;;7.05;1.60;;;10.20;99.90;;;;;;5031264;28;20041;-77
2023/10/30 00:03:41;;;;;;;4.63;2.20;;;10.20;99.90;;;;;;5026191;28;20042;-77
2023/10/30 00:06:07;;;;;;;5.90;2.03;;;10.20;99.90;;;;;;5016307;28;20042;-77
2023/10/30 00:08:33;;;;;;;9.02;1.88;;;10.10;99.90;;;;;;5012296;28;20056;-77
2023/10/30 00:10:59;;;;;;;9.98;2.10;;;10.10;99.90;;;;;;5014224;28;20042;-77
2023/10/30 00:13:24;;;;;;;7.63;1.80;;;10.10;99.90;;;;;;5029362;28;20045;-77
2023/10/30 00:15:50;;;;;;;8.13;1.98;;;10.10;99.90;;;;;;5023096;28;20038;-77
2023/10/30 00:18:16;;;;;;;6.53;1.60;;;10.00;99.90;;;;;;5031662;28;20065;-77
2023/10/30 00:20:41;;;;;;;8.40;2.60;;;10.00;99.90;;;;;;4997906;28;20069;-77
2023/10/30 00:23:07;;;;;;;4.70;1.60;;;10.00;99.90;;;;;;5018264;28;20784;-77
2023/10/30 00:25:33;;;;;;;5.53;1.83;;;10.00;99.90;;;;;;5016553;28;20041;-77
2023/10/30 00:28:00;;;;;;;8.00;2.10;;;10.00;99.90;;;;;;5014596;28;20407;-77
2023/10/30 00:30:28;;;;;;;7.95;1.90;;;10.00;99.90;;;;;;5031714;28;20033;-77
2023/10/30 00:32:54;;;;;;;5.90;2.00;;;10.00;99.90;;;;;;5020454;28;20077;-77
2023/10/30 00:35:19;;;;;;;5.45;2.20;;;10.00;99.90;;;;;;5012191;28;20088;-77
2023/10/30 00:37:45;;;;;;;5.88;1.83;;;10.00;99.90;;;;;;5023625;28;20038;-77
2023/10/30 00:40:11;;;;;;;5.85;1.60;;;10.00;99.90;;;;;;5031312;28;20041;-79
2023/10/30 00:42:37;;;;;;;4.63;1.60;;;10.00;99.90;;;;;;5026415;28;20124;-77
2023/10/30 00:45:06;;;;;;;10.90;1.98;;;10.00;99.90;;;;;;5016221;28;20124;-77
2023/10/30 00:47:32;;;;;;;7.38;2.00;;;10.00;99.90;;;;;;5026151;28;20041;-77
2023/10/30 00:49:57;;;;;;;5.03;1.77;;;10.00;99.90;;;;;;5012716;28;20095;-77
2023/10/30 00:52:23;;;;;;;14.38;2.53;;;10.00;99.90;;;;;;5024005;28;20052;-76
2023/10/30 00:54:48;;;;;;;5.18;1.77;;;9.90;99.90;;;;;;5017709;28;20045;-77
2023/10/30 00:57:14;;;;;;;10.40;2.10;;;9.90;99.90;;;;;;5025672;28;20479;-78
2023/10/30 00:59:40;;;;;;;6.72;2.15;;;9.90;99.90;;;;;;5024989;28;20458;-77
2023/10/30 01:02:06;;;;;;;9.60;1.85;;;9.90;99.90;;;;;;5027669;28;20104;-77
2023/10/30 01:04:31;;;;;;;8.07;1.98;;;9.90;99.90;;;;;;5026134;28;20125;-76
2023/10/30 01:06:58;;;;;;;6.75;2.05;;;10.00;99.90;;;;;;5015782;28;20064;-77
2023/10/30 01:09:23;;;;;;;5.30;1.85;;;9.90;99.90;;;;;;5018012;28;20046;-77
2023/10/30 01:11:49;;;;;;;9.20;2.00;;;9.90;99.90;;;;;;5023499;28;20050;-77
2023/10/30 01:14:14;;;;;;;5.32;2.03;;;9.90;99.90;;;;;;5025224;28;20120;-77
2023/10/30 01:16:40;;;;;;;7.78;1.95;;;9.90;99.90;;;;;;5025459;28;20087;-76
2023/10/30 01:19:05;;;;;;;8.57;2.30;;;9.90;99.90;;;;;;5027765;28;20052;-77
2023/10/30 01:21:33;;;;;;;12.18;2.10;;;9.90;99.90;;;;;;5026513;28;20414;-77
2023/10/30 01:23:59;;;;;;;6.40;1.88;;;9.90;99.90;;;;;;5006685;28;20133;-77
2023/10/30 01:26:24;;;;;;;8.48;2.38;;;9.90;99.90;;;;;;5026912;28;20045;-77
2023/10/30 01:28:50;;;;;;;5.03;2.08;;;9.90;99.90;;;;;;5023170;28;20494;-76
2023/10/30 01:31:16;;;;;;;10.25;2.88;;;9.90;99.90;;;;;;5026085;28;20158;-77
2023/10/30 01:33:41;;;;;;;13.80;2.00;;;9.90;99.90;;;;;;5019296;28;20080;-77
2023/10/30 01:36:07;;;;;;;6.13;1.95;;;9.90;99.90;;;;;;5018908;28;20045;-77
2023/10/30 01:38:33;;;;;;;7.53;1.88;;;9.80;99.90;;;;;;5023400;28;20048;-77
2023/10/30 01:40:59;;;;;;;8.00;2.53;;;9.90;99.90;;;;;;5022460;28;20510;-77
2023/10/30 01:43:29;;;;;;;11.05;2.25;;;9.80;99.90;;;;;;5025220;28;20111;-77
2023/10/30 01:45:55;;;;;;;7.32;1.88;;;9.90;99.90;;;;;;5021288;28;20041;-77
2023/10/30 01:48:21;;;;;;;8.40;1.90;;;9.90;99.90;;;;;;5003192;28;20072;-77
2023/10/30 01:50:49;;;;;;;8.57;2.35;;;9.80;99.90;;;;;;5023171;28;20545;-77
2023/10/30 01:53:18;;;;;;;7.28;1.98;;;9.80;99.90;;;;;;5020618;28;20042;-77
2023/10/30 01:55:45;;;;;;;8.27;2.67;;;9.80;99.90;;;;;;5011941;28;20067;-77
2023/10/30 01:58:11;;;;;;;9.75;2.63;;;9.80;99.90;;;;;;5016636;28;20044;-78
2023/10/30 02:00:38;;;;;;;9.65;2.28;;;9.80;99.90;;;;;;5018730;28;20409;-77
2023/10/30 02:03:04;;;;;;;9.10;2.42;;;9.80;99.90;;;;;;5028719;28;20041;-77
2023/10/30 02:05:29;;;;;;;8.63;2.17;;;9.80;99.90;;;;;;5016911;28;20516;-77
2023/10/30 02:07:56;;;;;;;9.82;2.22;;;9.80;99.90;;;;;;5022461;28;20536;-77
2023/10/30 02:10:21;;;;;;;9.55;2.00;;;9.90;99.90;;;;;;5016327;28;20048;-77
2023/10/30 02:12:50;;;;;;;11.05;2.13;;;9.90;99.90;;;;;;5019794;28;20418;-78
2023/10/30 02:15:16;;;;;;;9.00;2.88;;;9.80;99.90;;;;;;5025665;28;20092;-77
2023/10/30 02:17:42;;;;;;;8.60;1.83;;;9.90;99.90;;;;;;5024451;28;20076;-77
2023/10/30 02:20:08;;;;;;;10.48;2.47;;;9.90;99.90;;;;;;5027086;28;20045;-77
2023/10/30 02:22:34;;;;;;;10.30;2.13;;;9.90;99.90;;;;;;5020529;28;20084;-77
2023/10/30 02:24:59;;;;;;;9.15;2.25;;;9.90;99.90;;;;;;5018029;28;20490;-77
2023/10/30 02:27:25;;;;;;;7.10;1.80;;;9.80;99.90;;;;;;5018380;28;20045;-78
2023/10/30 02:29:51;;;;;;;9.80;2.17;;;9.90;99.90;;;;;;5007962;28;20049;-77
2023/10/30 02:32:16;;;;;;;9.65;2.05;;;9.90;99.90;;;;;;5015585;28;20099;-77
2023/10/30 02:34:42;;;;;;;11.98;2.25;;;9.80;99.90;;;;;;5017117;28;20080;-76
2023/10/30 02:37:07;;;;;;;9.88;2.03;;;9.90;99.90;;;;;;5023682;28;20464;-77
2023/10/30 02:39:34;;;;;;;11.60;2.25;;;9.90;99.90;;;;;;5016271;28;20440;-77
2023/10/30 02:42:01;;;;;;;12.23;2.50;;;9.90;99.90;;;;;;5024958;28;20048;-78
2023/10/30 02:44:28;;;;;;;15.15;2.47;;;9.90;99.90;;;;;;5022103;28;20056;-77
2023/10/30 02:46:55;;;;;;;7.72;2.10;;;9.90;99.90;;;;;;5030310;28;20045;-78
2023/10/30 02:49:20;;;;;;;13.23;2.22;;;9.90;99.90;;;;;;5011874;28;20498;-78
2023/10/30 02:51:46;;;;;;;11.45;2.30;;;9.90;99.90;;;;;;5029515;28;20117;-78
2023/10/30 02:54:11;;;;;;;10.70;3.30;;;10.00;99.90;;;;;;5025132;28;20150;-78
2023/10/30 02:56:37;;;;;;;11.55;2.30;;;10.00;99.90;;;;;;5030872;28;20040;-77
2023/10/30 02:59:02;;;;;;;10.82;2.40;;;10.00;99.90;;;;;;5016537;28;20046;-78
2023/10/30 03:01:28;;;;;;;9.48;1.73;;;10.00;99.90;;;;;;5015131;28;20653;-78
2023/10/30 03:03:54;;;;;;;12.20;2.50;;;10.00;99.90;;;;;;5024190;28;20049;-77
2023/10/30 03:06:20;;;;;;;10.05;2.17;;;10.00;99.90;;;;;;5012557;28;20045;-77
2023/10/30 03:08:46;;;;;;;7.25;1.88;;;10.00;99.90;;;;;;5027007;28;20440;-77
2023/10/30 03:11:12;;;;;;;9.25;2.10;;;10.00;99.90;;;;;;5010545;28;20529;-77
2023/10/30 03:13:37;;;;;;;8.90;1.88;;;10.00;99.90;;;;;;5021842;28;20041;-77
2023/10/30 03:16:03;;;;;;;9.05;2.15;;;10.00;99.90;;;;;;5028563;28;20038;-77
2023/10/30 03:18:29;;;;;;;14.80;2.55;;;10.00;99.90;;;;;;5027787;28;20045;-76
2023/10/30 03:20:55;;;;;;;10.40;2.42;;;10.00;99.90;;;;;;5030917;28;20042;-78
2023/10/30 03:23:20;;;;;;;14.80;2.63;;;10.00;99.90;;;;;;5011690;28;20033;-77
2023/10/30 03:25:47;;;;;;;9.10;2.13;;;10.00;99.90;;;;;;5022179;28;20042;-78
2023/10/30 03:28:13;;;;;;;11.05;2.28;;;10.00;99.90;;;;;;5032466;28;20367;-77
2023/10/30 03:30:38;;;;;;;10.65;1.75;;;10.00;99.90;;;;;;5023998;28;20080;-77
2023/10/30 03:33:04;;;;;;;13.77;2.58;;;10.00;99.90;;;;;;5018261;28;20065;-79
2023/10/30 03:35:35;;;;;;;7.50;2.30;;;10.00;99.90;;;;;;5013121;28;20071;-77
2023/10/30 03:38:01;;;;;;;9.00;2.20;;;10.00;99.90;;;;;;5020715;28;20038;-77
2023/10/30 03:40:27;;;;;;;10.82;2.13;;;10.00;99.90;;;;;;5025061;28;20048;-77
2023/10/30 03:42:52;;;;;;;13.20;2.90;;;10.00;99.90;;;;;;5027196;28;20050;-77
2023/10/30 03:45:18;;;;;;;9.18;2.13;;;10.00;99.90;;;;;;5023973;28;20048;-77
2023/10/30 03:47:45;;;;;;;13.70;2.60;;;10.00;99.90;;;;;;5015326;28;20049;-77
2023/10/30 03:50:13;;;;;;;11.73;2.60;;;10.00;99.90;;;;;;5021520;28;20061;-77
2023/10/30 03:52:39;;;;;;;12.82;2.35;;;10.00;99.90;;;;;;5018466;28;20380;-77
2023/10/30 03:55:05;;;;;;;7.57;2.10;;;10.00;99.90;;;;;;5026676;28;20052;-77
2023/10/30 03:57:30;;;;;;;9.63;1.88;;;10.00;99.90;;;;;;5009167;28;20041;-78
2023/10/30 03:59:56;;;;;;;12.98;2.42;;;10.00;99.90;;;;;;5027484;28;20053;-78
2023/10/30 04:02:22;;;;;;;9.38;2.08;;;10.00;99.90;;;;;;5017856;28;20041;-78
2023/10/30 04:04:47;;;;;;;15.48;2.95;;;10.00;99.90;;;;;;5023380;28;20048;-78
2023/10/30 04:07:13;;;;;;;12.35;2.28;;;10.10;99.90;;;;;;5021209;28;20483;-77
2023/10/30 04:09:39;;;;;;;12.40;2.20;;;10.00;99.90;;;;;;5007246;28;20049;-77
2023/10/30 04:12:04;;;;;;;9.80;2.05;;;10.00;99.90;;;;;;5022456;28;20049;-78
2023/10/30 04:14:31;;;;;;;10.85;2.28;;;10.00;99.90;;;;;;5026398;28;20511;-77
2023/10/30 04:16:57;;;;;;;11.82;2.17;;;10.00;99.90;;;;;;4997018;28;20466;-78
2023/10/30 04:19:23;;;;;;;12.85;2.30;;;10.00;99.90;;;;;;5022189;28;20083;-76
2023/10/30 04:21:48;;;;;;;17.83;2.25;;;10.00;99.90;;;;;;5022646;28;20038;-78
2023/10/30 04:24:14;;;;;;;10.05;2.28;;;10.00;99.90;;;;;;5027316;28;20124;-77
2023/10/30 04:26:40;;;;;;;12.25;2.42;;;10.00;99.90;;;;;;5021675;28;20128;-77
2023/10/30 04:29:05;;;;;;;12.13;2.33;;;9.90;99.90;;;;;;5011181;28;20042;-76
2023/10/30 04:31:31;;;;;;;12.98;2.20;;;10.00;99.90;;;;;;5026104;28;20033;-77
2023/10/30 04:33:56;;;;;;;10.10;2.55;;;9.90;99.90;;;;;;5023095;28;20176;-77
2023/10/30 04:36:22;;;;;;;11.20;2.20;;;9.90;99.90;;;;;;5012443;28;20069;-77
2023/10/30 04:38:49;;;;;;;19.08;2.97;;;9.90;99.90;;;;;;5012077;28;20038;-78
2023/10/30 04:41:15;;;;;;;12.68;2.35;;;9.90;99.90;;;;;;5045320;22;20029;-72
2023/10/30 04:43:41;;;;;;;10.02;2.30;;;10.00;99.90;;;;;;5028760;28;20983;-72
2023/10/30 04:46:07;;;;;;;11.55;2.20;;;9.90;99.90;;;;;;5021439;28;20049;-71
2023/10/30 04:48:54;;;;;;;12.07;2.35;;;9.90;99.90;;;;;;5036729;28;20045;-72
2023/10/30 04:51:20;;;;;;;12.27;2.42;;;9.90;99.90;;;;;;5014493;23;20033;-71
2023/10/30 04:53:46;;;;;;;9.20;2.22;;;9.90;99.90;;;;;;5030846;28;20582;-71
2023/10/30 04:56:11;;;;;;;10.55;2.10;;;9.90;99.90;;;;;;5032440;28;20095;-71
2023/10/30 04:58:37;;;;;;;10.77;2.05;;;9.90;99.90;;;;;;5032653;28;20088;-72
2023/10/30 05:01:09;;;;;;;13.57;2.20;;;9.80;99.90;;;;;;5019364;28;20041;-71
2023/10/30 05:03:38;;;;;;;10.10;2.22;;;9.80;99.90;;;;;;5017650;28;20520;-71
2023/10/30 05:06:05;;;;;;;10.63;2.03;;;9.80;99.90;;;;;;5011285;28;20038;-71
2023/10/30 05:08:32;;;;;;;8.98;1.90;;;9.80;99.90;;;;;;5018027;28;20081;-71
2023/10/30 05:10:59;;;;;;;13.98;2.40;;;9.80;99.90;;;;;;5003821;28;20157;-71
2023/10/30 05:13:28;;;;;;;7.88;1.85;;;9.80;99.90;;;;;;5011204;28;20173;-72
2023/10/30 05:15:57;;;;;;;10.55;1.80;;;9.80;99.90;;;;;;5008377;28;20497;-71
2023/10/30 05:18:24;;;;;;;8.90;1.98;;;9.80;99.90;;;;;;5012091;28;20029;-71
2023/10/30 05:20:50;;;;;;;13.00;2.33;;;9.80;99.90;;;;;;5008585;28;20096;-71
2023/10/30 05:23:16;;;;;;;12.07;2.15;;;9.80;99.90;;;;;;5006555;28;20189;-71
2023/10/30 05:25:42;;;;;;;10.27;2.10;;;9.70;99.90;;;;;;5008313;28;20898;-72
2023/10/30 05:28:08;;;;;;;12.60;2.13;;;9.70;99.90;;;;;;5005374;28;20045;-71
2023/10/30 05:30:35;;;;;;;12.15;2.65;;;9.70;99.90;;;;;;5016209;28;20042;-71
2023/10/30 05:33:02;;;;;;;19.02;2.53;;;9.80;99.90;;;;;;5009556;28;20509;-72
2023/10/30 05:35:27;;;;;;;15.75;2.10;;;9.70;99.90;;;;;;5013879;28;20069;-71
2023/10/30 05:37:53;;;;;;;9.63;2.10;;;9.70;99.90;;;;;;5008175;28;20407;-71
2023/10/30 05:40:21;;;;;;;17.45;2.88;;;9.70;99.90;;;;;;5012167;28;20525;-71
2023/10/30 05:42:46;;;;;;;11.57;1.88;;;9.70;99.90;;;;;;5016038;28;21172;-72
2023/10/30 05:45:12;;;;;;;12.63;2.08;;;9.70;99.90;;;;;;5005039;28;20038;-72
2023/10/30 05:47:55;;;;;;;13.07;2.25;;;9.70;99.90;;;;;;5016686;28;20092;-72
2023/10/30 05:50:20;;;;;;;10.77;2.10;;;9.70;99.90;;;;;;5013313;28;20091;-72
2023/10/30 05:52:46;;;;;;;15.38;2.33;;;9.70;99.90;;;;;;5004751;28;20041;-73
2023/10/30 05:55:12;;;;;;;11.45;2.60;;;9.70;99.90;;;;;;5011759;28;20046;-71
2023/10/30 05:57:41;;;;;;;15.55;2.10;;;9.70;99.90;;;;;;5002924;28;20092;-71
2023/10/30 06:00:07;;;;;;;12.68;2.20;;;9.70;99.90;;;;;;5009446;28;20407;-71
2023/10/30 06:02:34;;;;;;;14.45;2.50;;;9.70;99.90;;;;;;5009029;28;20061;-72
2023/10/30 06:05:00;;;;;;;15.45;2.28;;;9.70;99.90;;;;;;4994271;28;20398;-72
2023/10/30 06:07:30;;;;;;;12.27;2.35;;;9.70;99.90;;;;;;4993057;28;20060;-72
2023/10/30 06:09:57;;;;;;;16.80;2.95;;;10.20;99.90;;;;;;5009612;28;20038;-72
2023/10/30 06:12:22;;;;;;;13.50;2.35;;;9.70;99.90;;;;;;5005246;28;20054;-72
2023/10/30 06:14:48;;;;;;;11.55;2.22;;;9.70;99.90;;;;;;5009945;28;20100;-72
2023/10/30 06:17:13;;;;;;;13.85;2.22;;;9.70;99.90;;;;;;5010091;28;20049;-72
2023/10/30 06:19:40;;;;;;;12.07;2.20;;;9.70;99.90;;;;;;5013543;28;20034;-72
2023/10/30 06:22:06;;;;;;;17.83;2.40;;;9.70;99.90;;;;;;4991031;28;20069;-72
2023/10/30 06:24:33;;;;;;;11.60;2.10;;;9.70;99.90;;;;;;5007131;28;20092;-72
2023/10/30 06:26:59;;;;;;;9.05;2.20;;;9.70;99.90;;;;;;5009053;28;20053;-72
2023/10/30 06:29:25;;;;;;;10.23;2.30;;;9.70;99.90;;;;;;5008548;28;20042;-72
2023/10/30 06:31:51;;;;;;;14.00;2.58;;;9.70;99.90;;;;;;5009887;28;20037;-72
2023/10/30 06:34:16;;;;;;;15.10;2.90;;;9.70;99.90;;;;;;5009093;28;20050;-73
2023/10/30 06:36:44;;;;;;;17.52;2.83;;;9.70;99.90;;;;;;5010603;28;20097;-73
2023/10/30 06:39:09;;;;;;;13.70;2.70;;;9.70;99.90;;;;;;5010321;28;20057;-73
2023/10/30 06:41:39;;;;;;;9.27;2.65;;;9.70;99.90;;;;;;5008534;28;20050;-73
2023/10/30 06:44:04;;;;;;;9.68;2.42;;;9.60;99.90;;;;;;5009653;28;20042;-73
2023/10/30 06:46:31;;;;;;;14.90;2.42;;;9.70;99.90;;;;;;5009096;28;20057;-73
2023/10/30 06:48:56;;;;;;;14.02;2.65;;;9.70;99.90;;;;;;5023127;28;20042;-73
2023/10/30 06:51:23;;;;;;;13.50;2.65;;;9.70;99.90;;;;;;5010797;28;20048;-73
2023/10/30 06:53:49;;;;;;;10.15;1.90;;;9.70;99.90;;;;;;5009726;28;20487;-73
2023/10/30 06:56:14;;;;;;;8.73;2.60;;;9.70;99.90;;;;;;5009637;28;20070;-73
2023/10/30 06:58:40;;;;;;;17.73;2.50;;;9.70;99.90;;;;;;5011720;28;20092;-73
2023/10/30 07:01:05;;;;;;;11.10;2.30;;;9.80;99.90;;;;;;5020627;28;20049;-73
2023/10/30 07:03:33;;;;;;;12.15;2.22;;;9.80;99.90;;;;;;5010743;28;20056;-73
2023/10/30 07:05:59;;;;;;;17.80;2.60;;;9.70;99.90;;;;;;5017448;28;20037;-73
2023/10/30 07:08:25;;;;;;;10.80;2.17;;;9.80;99.90;;;;;;5015364;28;20096;-73
2023/10/30 07:10:53;;;;;;;12.43;2.50;;;9.80;99.90;;;;;;5009958;28;20035;-72
2023/10/30 07:13:20;;;;;;;15.02;2.60;;;9.80;99.90;;;;;;4995459;28;20139;-73
2023/10/30 07:15:46;;;;;;;12.40;2.55;;;9.80;99.90;;;;;;5009964;28;20113;-73
2023/10/30 07:18:12;;;;;;;7.10;2.25;;;9.80;99.90;;;;;;5012130;28;20046;-74
2023/10/30 07:20:38;;;;;;;15.60;3.38;;;9.80;99.90;;;;;;5016194;28;20045;-73
2023/10/30 07:23:04;;;;;;;12.88;2.60;;;9.80;99.90;;;;;;5010606;28;20042;-73
2023/10/30 07:25:30;;;;;;;13.95;2.55;;;9.90;99.90;;;;;;5017895;28;20042;-73
2023/10/30 07:27:56;;;;;;;11.35;2.50;;;9.90;99.90;;;;;;5015071;28;20038;-73
2023/10/30 07:30:24;;;;;;;15.45;2.75;;;9.90;99.90;;;;;;5008360;28;20045;-73
2023/10/30 07:32:50;;;;;;;13.45;2.60;;;10.00;99.90;;;;;;4995743;28;20042;-73
2023/10/30 07:35:15;;;;;;;14.70;2.55;;;10.00;99.90;;;;;;5018283;28;20092;-73
2023/10/30 07:37:41;;;;;;;12.68;2.53;;;10.00;99.90;;;;;;5021990;28;20040;-73
2023/10/30 07:40:07;;;;;;;13.40;2.60;;;10.00;99.90;;;;;;5012905;28;20050;-73
2023/10/30 07:42:33;;;;;;;11.35;2.92;;;10.10;99.90;;;;;;5012729;28;20042;-73
2023/10/30 07:44:58;;;;;;;11.95;2.42;;;10.10;99.90;;;;;;5023872;28;20502;-74
2023/10/30 07:47:27;;;;;;;13.95;2.35;;;10.10;99.90;;;;;;4994535;28;20038;-73
2023/10/30 07:49:54;;;;;;;16.10;2.70;;;10.10;99.90;;;;;;5027400;28;20414;-73
2023/10/30 07:52:20;;;;;;;10.93;2.70;;;10.20;99.90;;;;;;5019479;28;20112;-74
2023/10/30 07:54:46;;;;;;;15.70;2.70;;;10.20;99.90;;;;;;5019449;28;20041;-74
2023/10/30 07:57:12;;;;;;;10.50;2.50;;;10.20;99.90;;;;;;5020415;28;20056;-73
2023/10/30 07:59:37;;;;;;;12.60;2.60;;;10.20;99.90;;;;;;5012596;28;20448;-73
2023/10/30 08:02:06;;;;;;;11.50;2.60;;;10.30;99.90;;;;;;5015761;28;20030;-73
2023/10/30 08:04:31;;;;;;;12.85;2.38;;;10.30;99.90;;;;;;5018205;28;20045;-73
2023/10/30 08:06:57;;;;;;;15.10;2.50;;;10.30;99.90;;;;;;5011811;28;20100;-74
2023/10/30 08:09:23;;;;;;;15.93;2.88;;;10.40;99.90;;;;;;5009432;28;20081;-73
2023/10/30 08:11:49;;;;;;;13.95;2.70;;;10.40;99.90;;;;;;5011285;28;20069;-73
2023/10/30 08:14:18;;;;;;;18.45;3.03;;;10.40;99.90;;;;;;5013359;28;20045;-73
2023/10/30 08:16:45;;;;;;;16.85;3.13;;;10.50;99.90;;;;;;5014601;28;20038;-73
2023/10/30 08:19:10;;;;;;;11.77;3.10;;;10.50;99.90;;;;;;5014945;28;20044;-73
2023/10/30 08:21:37;;;;;;;12.63;2.97;;;10.60;99.90;;;;;;5019292;28;20467;-72
2023/10/30 08:24:03;;;;;;;14.32;3.00;;;10.60;99.90;;;;;;4996137;28;20069;-73
2023/10/30 08:26:30;;;;;;;13.38;2.95;;;10.60;99.90;;;;;;5011996;28;20077;-73
2023/10/30 08:28:57;;;;;;;9.82;2.33;;;10.70;99.90;;;;;;5011459;28;20050;-73
2023/10/30 08:31:23;;;;;;;13.00;2.83;;;10.70;99.90;;;;;;5014043;28;20037;-72
2023/10/30 08:33:48;;;;;;;15.02;2.67;;;10.80;99.90;;;;;;5013040;28;20176;-73
2023/10/30 08:36:21;;;;;;;8.95;2.90;;;10.80;99.90;;;;;;5014292;28;20045;-73
2023/10/30 08:38:47;;;;;;;12.32;2.47;;;10.80;99.90;;;;;;5009487;28;20498;-73
2023/10/30 08:41:15;;;;;;;13.65;2.88;;;11.00;99.90;;;;;;5009909;28;20037;-74
2023/10/30 08:43:41;;;;;;;10.82;2.83;;;10.90;99.90;;;;;;5012390;28;20077;-72
2023/10/30 08:46:08;;;;;;;12.77;2.35;;;11.00;99.90;;;;;;5013778;28;20053;-73
2023/10/30 08:48:35;;;;;;;15.48;2.80;;;11.00;99.90;;;;;;5004822;28;20530;-72
2023/10/30 08:51:03;;;;;;;13.02;2.90;;;11.10;99.90;;;;;;5024163;28;20329;-72
2023/10/30 08:53:29;;;;;;;14.30;2.85;;;11.10;99.90;;;;;;5009243;28;20033;-72
2023/10/30 08:55:55;;;;;;;13.48;3.08;;;11.20;99.90;;;;;;5008262;28;20380;-73
2023/10/30 08:58:20;;;;;;;13.80;2.95;;;11.20;99.90;;;;;;5012554;28;20061;-73
2023/10/30 09:00:46;;;;;;;10.20;2.60;;;11.30;99.90;;;;;;5019735;28;20060;-73
2023/10/30 09:03:12;;;;;;;10.95;2.30;;;11.30;99.90;;;;;;5011289;28;20038;-72
2023/10/30 09:05:37;;;;;;;18.17;2.80;;;11.40;99.90;;;;;;4993186;28;20042;-74
2023/10/30 09:08:03;;;;;;;10.38;2.25;;;11.40;99.90;;;;;;5014511;28;20046;-74
2023/10/30 09:10:32;;;;;;;13.65;2.47;;;11.50;99.90;;;;;;5012373;28;20034;-73
2023/10/30 09:13:00;;;;;;;16.23;3.00;;;11.50;99.90;;;;;;4997660;28;20045;-73
2023/10/30 09:15:27;;;;;;;12.45;2.55;;;11.60;99.90;;;;;;4998066;28;20522;-72
2023/10/30 09:17:55;;;;;;;13.13;2.92;;;11.60;99.90;;;;;;5015269;28;20037;-73
2023/10/30 09:20:24;;;;;;;14.55;2.67;;;11.70;99.90;;;;;;5019697;28;20048;-73
2023/10/30 09:22:52;;;;;;;10.48;2.42;;;11.70;99.90;;;;;;5013375;28;20409;-73
2023/10/30 09:25:18;;;;;;;13.60;2.55;;;11.70;99.90;;;;;;5013351;28;20081;-76
2023/10/30 09:27:45;;;;;;;13.20;2.53;;;11.80;99.90;;;;;;5020088;28;20111;-74
2023/10/30 09:30:11;;;;;;;15.35;2.60;;;11.80;99.90;;;;;;5020133;28;20069;-75
2023/10/30 09:32:38;;;;;;;11.25;2.17;;;11.80;99.90;;;;;;5020679;28;20053;-73
2023/10/30 09:35:20;;;;;;;14.02;3.08;;;11.80;99.90;;;;;;5013254;28;20057;-73
2023/10/30 09:37:46;;;;;;;;;;;11.90;99.90;;;;;;5008983;28;20462;-74
2023/10/30 09:40:12;;;;;;;9.98;2.83;;;11.90;99.90;;;;;;5002754;28;20409;-75
2023/10/30 09:42:50;;;;;;;11.18;2.30;;;11.90;99.90;;;;;;5012096;28;20044;-74
2023/10/30 09:45:17;;;;;;;13.82;2.60;;;11.90;99.90;;;;;;5005700;28;20042;-74
2023/10/30 09:47:43;;;;;;;12.85;2.72;;;11.90;99.90;;;;;;5021694;28;20038;-75
2023/10/30 09:50:10;;;;;;;18.25;2.97;;;11.90;99.90;;;;;;5017604;28;20401;-76
2023/10/30 09:52:36;;;;;;;13.95;3.00;;;11.90;99.90;;;;;;5007415;28;20084;-75
2023/10/30 09:55:08;;;;;;;16.45;2.67;;;11.90;99.90;;;;;;5012140;28;20042;-75
2023/10/30 09:57:33;;;;;;;12.05;3.25;;;11.90;99.90;;;;;;5003048;28;20099;-75
2023/10/30 09:59:59;;;;;;;12.02;2.25;;;12.00;99.90;;;;;;5009817;28;20180;-76
2023/10/30 10:02:25;;;;;;;15.32;2.85;;;12.40;99.90;;;;;;5014032;28;20437;-76
2023/10/30 10:04:51;;;;;;;9.80;2.70;;;11.90;99.90;;;;;;5016494;28;20049;-76
2023/10/30 10:07:18;;;;;;;11.75;3.15;;;12.00;99.90;;;;;;5024126;28;20096;-76
2023/10/30 10:10:01;;;;;;;16.88;2.78;;;12.00;99.90;;;;;;5005687;28;20541;-76
2023/10/30 10:12:30;;;;;;;11.18;3.25;;;12.00;99.90;;;;;;5001473;28;20046;-75
2023/10/30 10:14:57;;;;;;;13.20;3.38;;;12.10;99.90;;;;;;5003555;28;20053;-74
2023/10/30 10:17:25;;;;;;;13.10;3.45;;;12.20;99.90;;;;;;4996837;28;20204;-76
2023/10/30 10:19:53;;;;;;;11.73;2.65;;;12.30;99.90;;;;;;4995031;28;20049;-76
2023/10/30 10:22:40;;;;;;;13.75;2.80;;;12.40;99.90;;;;;;5012656;28;20067;-76
2023/10/30 10:25:11;;;;;;;11.20;2.47;;;12.50;99.90;;;;;;5012139;28;20041;-75
2023/10/30 10:27:40;;;;;;;11.45;2.50;;;12.60;99.90;;;;;;4991121;28;20120;-76
2023/10/30 10:30:06;;;;;;;19.45;2.85;;;12.50;99.90;;;;;;5007613;28;20391;-74
2023/10/30 10:32:32;;;;;;;10.43;3.08;;;12.60;99.90;;;;;;5000104;28;20057;-76
2023/10/30 10:35:07;;;;;;;16.10;2.80;;;12.60;99.90;;;;;;5002560;28;20038;-75
2023/10/30 10:37:35;;;;;;;11.63;2.38;;;12.70;99.90;;;;;;4987479;28;20045;-76
2023/10/30 10:40:03;;;;;;;15.35;2.88;;;12.80;99.90;;;;;;5013764;28;20037;-76
2023/10/30 10:42:29;;;;;;;13.82;2.85;;;12.90;99.90;;;;;;5025839;23;20053;-79
2023/10/30 10:44:56;;;;;;;13.57;2.88;;;12.90;99.90;;;;;;5026705;28;20490;-80
2023/10/30 10:47:23;;;;;;;12.45;2.75;;;13.00;99.90;;;;;;5028661;28;20045;-79
2023/10/30 10:49:50;;;;;;;14.73;2.63;;;13.00;99.90;;;;;;5033573;28;20029;-79
2023/10/30 10:52:17;;;;;;;11.52;2.40;;;13.00;99.90;;;;;;5028630;28;20041;-79
2023/10/30 10:55:04;;;;;;;13.85;2.70;;;13.00;99.90;;;;;;5025656;28;20053;-79
2023/10/30 10:57:46;;;;;;;11.00;2.60;;;13.00;99.90;;;;;;5027328;28;20498;-78
2023/10/30 11:00:13;;;;;;;10.85;2.50;;;12.90;99.90;;;;;;5014040;28;20029;-75
2023/10/30 11:02:41;;;;;;;11.15;2.72;;;13.00;99.90;;;;;;5029557;28;20045;-78
2023/10/30 11:05:08;;;;;;;10.55;2.83;;;13.00;99.90;;;;;;5029697;28;20053;-76
2023/10/30 11:07:41;;;;;;;12.95;2.40;;;13.00;99.90;;;;;;5013760;28;20057;-78
2023/10/30 11:10:14;;;;;;;10.70;2.47;;;13.00;99.90;;;;;;5033918;28;20065;-77
2023/10/30 11:13:13;;;;;;;13.13;2.90;;;13.10;99.90;;;;;;5038208;28;20125;-77
2023/10/30 11:15:48;;;;;;;17.65;3.20;;;13.20;99.90;;;;;;5029051;28;20045;-78
2023/10/30 11:18:18;;;;;;;10.63;2.50;;;13.20;99.90;;;;;;5034086;28;20049;-77
2023/10/30 11:20:45;;;;;;;13.90;2.45;;;13.20;99.90;;;;;;5016504;28;20135;-76
2023/10/30 11:23:12;;;;;;;12.02;3.28;;;13.20;99.90;;;;;;5035080;28;20055;-77
2023/10/30 11:25:54;;;;;;;12.18;2.67;;;13.20;99.90;;;;;;5027623;28;20405;-78
2023/10/30 11:28:22;;;;;;;12.25;2.58;;;13.20;99.90;;;;;;5030604;28;20049;-77
2023/10/30 11:30:51;;;;;;;13.40;2.55;;;13.30;99.90;;;;;;5029451;28;20045;-76
2023/10/30 11:33:21;;;;;;;11.38;2.50;;;13.30;99.90;;;;;;5031460;28;20085;-77
2023/10/30 11:36:11;;;;;;;15.05;2.75;;;13.30;99.90;;;;;;5028877;28;20049;-78
2023/10/30 11:38:51;;;;;;;12.80;2.88;;;13.30;99.90;;;;;;5020925;28;20060;-78
2023/10/30 11:41:17;;;;;;;18.58;3.90;;;13.40;99.90;;;;;;5023323;28;20233;-77
2023/10/30 11:43:44;;;;;;;13.02;3.10;;;13.40;99.90;;;;;;5013631;28;20052;-79
2023/10/30 11:46:12;;;;;;;16.33;2.70;;;13.40;99.90;;;;;;5034560;28;20398;-78
2023/10/30 11:48:38;;;;;;;12.93;2.45;;;13.40;99.90;;;;;;5033535;28;20033;-79
2023/10/30 11:51:04;;;;;;;12.52;2.75;;;13.40;99.90;;;;;;5024583;28;20129;-78
2023/10/30 11:53:30;;;;;;;14.25;2.90;;;13.50;99.90;;;;;;5041563;28;20050;-78
2023/10/30 11:55:57;;;;;;;17.10;3.20;;;13.40;99.90;;;;;;5030103;28;20064;-79
2023/10/30 11:58:23;;;;;;;15.43;2.80;;;13.50;99.90;;;;;;5027267;28;20033;-80
2023/10/30 12:00:49;;;;;;;14.07;2.85;;;13.50;99.90;;;;;;5035375;28;20364;-79
2023/10/30 12:03:15;;;;;;;10.05;2.38;;;13.50;99.90;;;;;;5038524;28;20076;-78
2023/10/30 12:05:41;;;;;;;19.48;2.90;;;13.60;99.90;;;;;;5028662;28;20045;-78
2023/10/30 12:08:06;;;;;;;11.93;2.60;;;13.60;99.90;;;;;;5030285;28;20044;-79
2023/10/30 12:10:32;;;;;;;11.15;2.50;;;13.60;99.90;;;;;;5037183;28;20506;-77
2023/10/30 12:12:58;;;;;;;12.77;2.38;;;13.60;99.90;;;;;;5026214;28;20042;-80
2023/10/30 12:15:27;;;;;;;12.25;3.03;;;13.60;99.90;;;;;;5037880;28;20079;-78
2023/10/30 12:17:52;;;;;;;12.90;2.78;;;13.60;99.90;;;;;;5037876;28;20063;-79
2023/10/30 12:20:20;;;;;;;12.02;2.58;;;13.60;99.90;;;;;;5033264;28;20041;-78
2023/10/30 12:22:46;;;;;;;9.63;2.30;;;13.60;99.90;;;;;;5025499;28;20094;-81
2023/10/30 12:25:16;;;;;;;11.02;2.80;;;13.60;99.90;;;;;;5039026;28;20037;-77
2023/10/30 12:27:41;;;;;;;16.45;2.97;;;13.60;99.90;;;;;;5032873;28;20053;-77
2023/10/30 12:30:15;;;;;;;11.70;3.17;;;13.60;99.90;;;;;;5027451;28;20044;-79
2023/10/30 12:32:44;;;;;;;9.52;2.30;;;13.70;99.90;;;;;;5036049;28;20095;-79
2023/10/30 12:35:10;;;;;;;13.75;2.88;;;13.70;99.90;;;;;;5013966;28;20033;-78
2023/10/30 12:37:37;;;;;;;12.45;2.70;;;13.70;99.90;;;;;;5038154;28;20397;-78
2023/10/30 12:40:06;;;;;;;14.20;3.17;;;13.70;99.90;;;;;;5041128;28;20037;-79
2023/10/30 12:42:39;;;;;;;15.88;2.97;;;13.70;99.90;;;;;;5034028;28;20044;-78